Time;durP1;ratioP1;P1;durP2;ratioP2;P2;SDS_P1;SDS_P2;PMS_P1;PMS_P2;Temp;Humidity;BMP_temperature;BMP_pressure;BME280_temperature;BME280_humidity;BME280_pressure;Samples;Min_cycle;Max_cycle;Signal;HPM_P1;HPM_P2
2022/04/26 03:36:56;;;;;;;13.97;5.13;;;;;;;;;;5051741;28;20033;-79
2022/04/26 03:39:42;;;;;;;8.73;4.10;;;;;;;;;;5051212;28;20045;-79
2022/04/26 03:42:28;;;;;;;9.27;3.78;;;;;;;;;;5051730;28;20040;-79
2022/04/26 03:45:13;;;;;;;9.70;4.38;;;;;;;;;;5054327;28;20049;-79
2022/04/26 03:47:59;;;;;;;12.40;4.63;;;;;;;;;;5072994;28;20032;-78
2022/04/26 03:50:45;;;;;;;13.02;4.22;;;;;;;;;;5050848;28;20493;-80
2022/04/26 03:53:30;;;;;;;10.73;3.65;;;;;;;;;;5051431;28;20041;-79
2022/04/26 03:56:16;;;;;;;7.38;3.90;;;;;;;;;;5051538;28;20041;-79
2022/04/26 03:59:01;;;;;;;15.15;4.03;;;;;;;;;;5051075;28;20045;-79
2022/04/26 04:01:47;;;;;;;14.45;3.75;;;;;;;;;;5050500;28;20037;-79
2022/04/26 04:04:33;;;;;;;9.63;3.40;;;;;;;;;;5051080;28;20044;-79
2022/04/26 04:07:18;;;;;;;20.02;8.88;;;;;;;;;;5051333;28;20489;-79
2022/04/26 04:10:04;;;;;;;9.00;2.88;;;;;;;;;;5051432;28;20037;-80
2022/04/26 04:12:49;;;;;;;11.70;3.70;;;;;;;;;;5051090;28;20044;-79
2022/04/26 04:15:37;;;;;;;11.48;5.05;;;;;;;;;;5051195;28;20041;-79
2022/04/26 04:21:27;;;;;;;10.30;4.30;;;;;;;;;;5051070;28;20041;-79
2022/04/26 04:24:13;;;;;;;18.02;6.28;;;;;;;;;;5049983;28;20474;-79
2022/04/26 04:26:58;;;;;;;17.95;5.57;;;;;;;;;;5050902;28;20041;-79
2022/04/26 04:29:44;;;;;;;8.32;3.08;;;;;;;;;;5050938;28;20037;-79
2022/04/26 04:32:29;;;;;;;10.00;3.05;;;;;;;;;;5050602;28;20041;-79
2022/04/26 04:35:15;;;;;;;11.98;3.40;;;;;;;;;;5050836;28;20041;-79
2022/04/26 04:38:00;;;;;;;11.48;4.30;;;;;;;;;;5050745;28;20052;-79
2022/04/26 04:40:46;;;;;;;17.33;6.45;;;;;;;;;;5050514;28;20049;-79
2022/04/26 04:43:32;;;;;;;7.68;3.78;;;;;;;;;;5051217;28;20041;-79
2022/04/26 04:46:17;;;;;;;6.28;3.15;;;;;;;;;;5050508;28;20045;-79
2022/04/26 04:49:03;;;;;;;10.27;3.70;;;;;;;;;;5050108;28;20045;-79
2022/04/26 04:51:48;;;;;;;11.90;4.15;;;;;;;;;;5050458;28;20045;-78
2022/04/26 04:54:35;;;;;;;9.35;3.70;;;;;;;;;;5050450;28;20037;-79
2022/04/26 04:57:19;;;;;;;7.80;3.30;;;;;;;;;;5050842;28;20045;-79
2022/04/26 05:00:05;;;;;;;7.07;3.30;;;;;;;;;;5050219;28;20437;-79
2022/04/26 05:02:51;;;;;;;9.35;3.47;;;;;;;;;;5050472;28;20044;-79
2022/04/26 05:05:36;;;;;;;7.68;3.90;;;;;;;;;;5050510;28;20045;-79
2022/04/26 05:08:22;;;;;;;8.65;3.60;;;;;;;;;;5050194;28;20405;-79
2022/04/26 05:11:07;;;;;;;7.55;3.92;;;;;;;;;;5050558;28;20036;-79
2022/04/26 05:13:53;;;;;;;11.02;4.80;;;;;;;;;;5056894;28;20040;-80
2022/04/26 05:16:38;;;;;;;7.95;3.95;;;;;;;;;;5050142;28;20041;-80
2022/04/26 05:19:23;;;;;;;12.25;3.40;;;;;;;;;;5050267;28;20041;-80
2022/04/26 05:22:09;;;;;;;11.02;3.45;;;;;;;;;;5050196;28;20045;-80
2022/04/26 05:24:57;;;;;;;5.93;3.15;;;;;;;;;;5050132;28;20405;-79
2022/04/26 05:27:43;;;;;;;9.70;3.70;;;;;;;;;;5050326;28;20048;-80
2022/04/26 05:30:28;;;;;;;7.72;2.75;;;;;;;;;;5049947;28;20394;-79
2022/04/26 05:33:14;;;;;;;6.50;2.70;;;;;;;;;;5050268;28;20041;-80
2022/04/26 05:35:59;;;;;;;5.93;2.30;;;;;;;;;;5049805;28;20045;-80
2022/04/26 05:38:44;;;;;;;5.30;2.05;;;;;;;;;;5050056;28;20038;-79
2022/04/26 05:41:30;;;;;;;4.22;2.35;;;;;;;;;;5050048;28;20044;-79
2022/04/26 05:44:16;;;;;;;6.32;3.25;;;;;;;;;;5049771;28;20071;-79
2022/04/26 05:47:02;;;;;;;5.47;2.90;;;;;;;;;;5050590;28;20041;-79
2022/04/26 05:49:46;;;;;;;6.85;2.40;;;;;;;;;;5049903;28;20041;-78
2022/04/26 05:52:32;;;;;;;5.07;2.85;;;;;;;;;;5049577;28;20497;-80
2022/04/26 05:55:18;;;;;;;8.48;3.17;;;;;;;;;;5050014;28;20394;-79
2022/04/26 05:58:03;;;;;;;7.75;2.28;;;;;;;;;;5049826;28;20045;-80
2022/04/26 06:00:49;;;;;;;5.20;2.47;;;;;;;;;;5050482;28;20474;-79
2022/04/26 06:03:37;;;;;;;9.75;3.00;;;;;;;;;;5072257;28;20048;-78
2022/04/26 06:06:22;;;;;;;8.73;2.88;;;;;;;;;;5053878;28;20041;-79
2022/04/26 06:09:08;;;;;;;6.13;2.58;;;;;;;;;;5053269;28;20037;-79
2022/04/26 06:11:53;;;;;;;3.45;1.90;;;;;;;;;;5052766;28;20429;-80
2022/04/26 06:14:39;;;;;;;4.13;2.05;;;;;;;;;;5052999;28;20049;-79
2022/04/26 06:17:25;;;;;;;4.38;2.33;;;;;;;;;;5053286;28;20041;-79
2022/04/26 06:20:11;;;;;;;5.50;2.33;;;;;;;;;;5052035;28;20045;-79
2022/04/26 06:22:56;;;;;;;6.47;2.53;;;;;;;;;;5059344;28;20044;-79
2022/04/26 06:25:42;;;;;;;4.18;2.00;;;;;;;;;;5052805;28;20057;-79
2022/04/26 06:28:28;;;;;;;8.98;2.20;;;;;;;;;;5052581;28;20045;-80
2022/04/26 06:31:13;;;;;;;4.18;1.90;;;;;;;;;;5052855;28;20053;-79
2022/04/26 06:33:59;;;;;;;6.43;2.03;;;;;;;;;;5051408;28;20041;-80
2022/04/26 06:36:43;;;;;;;6.45;1.80;;;;;;;;;;5052250;28;20394;-79
2022/04/26 06:39:29;;;;;;;7.85;2.25;;;;;;;;;;5052318;28;20041;-79
2022/04/26 06:42:15;;;;;;;5.03;2.40;;;;;;;;;;5052686;28;20049;-79
2022/04/26 06:45:00;;;;;;;7.53;2.78;;;;;;;;;;5052614;28;20045;-80
2022/04/26 06:47:48;;;;;;;6.47;2.70;;;;;;;;;;5052205;28;20505;-80
2022/04/26 06:50:34;;;;;;;4.80;2.20;;;;;;;;;;5052434;28;20041;-79
2022/04/26 06:53:19;;;;;;;12.55;2.75;;;;;;;;;;5051965;28;20393;-80
2022/04/26 06:56:05;;;;;;;8.52;2.65;;;;;;;;;;5052219;28;20478;-79
2022/04/26 06:58:50;;;;;;;6.93;2.80;;;;;;;;;;5051853;28;20430;-80
2022/04/26 07:01:36;;;;;;;3.50;2.13;;;;;;;;;;5051559;28;20049;-79
2022/04/26 07:04:22;;;;;;;6.85;2.20;;;;;;;;;;5051721;28;20048;-80
2022/04/26 07:07:07;;;;;;;4.45;2.05;;;;;;;;;;5051680;28;20045;-80
2022/04/26 07:09:52;;;;;;;3.30;1.98;;;;;;;;;;5051522;28;20041;-80
2022/04/26 07:12:38;;;;;;;4.43;1.90;;;;;;;;;;5050724;28;20037;-79
2022/04/26 07:15:25;;;;;;;7.32;1.90;;;;;;;;;;5051635;28;20401;-80
2022/04/26 07:18:12;;;;;;;6.00;2.25;;;;;;;;;;5052118;28;20041;-80
2022/04/26 07:20:57;;;;;;;2.17;1.40;;;;;;;;;;5051894;28;20045;-79
2022/04/26 07:23:41;;;;;;;5.78;1.90;;;;;;;;;;5058221;28;20049;-79
2022/04/26 07:26:28;;;;;;;6.82;1.65;;;;;;;;;;5051996;28;20489;-79
2022/04/26 07:29:15;;;;;;;4.25;1.85;;;;;;;;;;5051844;28;20045;-79
2022/04/26 07:32:00;;;;;;;3.60;1.90;;;;;;;;;;5051745;28;20040;-79
2022/04/26 07:34:46;;;;;;;4.60;2.00;;;;;;;;;;5051755;28;20041;-79
2022/04/26 07:37:31;;;;;;;5.20;1.52;;;;;;;;;;5051062;28;20037;-79
2022/04/26 07:40:18;;;;;;;2.50;1.48;;;;;;;;;;5051263;28;20398;-79
2022/04/26 07:43:05;;;;;;;3.97;1.52;;;;;;;;;;5051332;28;20048;-79
2022/04/26 07:45:50;;;;;;;4.90;1.20;;;;;;;;;;5051221;28;20040;-79
2022/04/26 07:48:39;;;;;;;1.00;0.90;;;;;;;;;;5051525;28;20045;-79
2022/04/26 07:51:24;;;;;;;2.03;1.30;;;;;;;;;;5048456;28;20053;-77
2022/04/26 07:54:10;;;;;;;3.95;1.88;;;;;;;;;;5056863;28;20406;-76
2022/04/26 07:56:55;;;;;;;4.28;1.70;;;;;;;;;;5057167;28;20033;-76
2022/04/26 07:59:41;;;;;;;2.75;1.52;;;;;;;;;;5050652;28;20045;-76
2022/04/26 08:02:27;;;;;;;4.75;1.60;;;;;;;;;;5051037;28;20041;-75
2022/04/26 08:05:14;;;;;;;2.75;1.60;;;;;;;;;;5056307;28;20052;-77
2022/04/26 08:07:59;;;;;;;3.65;1.90;;;;;;;;;;5058043;28;20044;-76
2022/04/26 08:10:44;;;;;;;4.65;1.52;;;;;;;;;;5051113;28;20053;-76
2022/04/26 08:13:30;;;;;;;5.85;1.40;;;;;;;;;;5056792;28;20033;-76
2022/04/26 08:16:17;;;;;;;5.97;1.40;;;;;;;;;;5062850;28;20397;-75
2022/04/26 08:19:02;;;;;;;3.30;1.00;;;;;;;;;;5050785;28;20045;-78
2022/04/26 08:21:48;;;;;;;1.52;1.15;;;;;;;;;;5050922;28;20037;-75
2022/04/26 08:27:38;;;;;;;2.50;1.42;;;;;;;;;;5051463;28;20044;-80
2022/04/26 08:30:23;;;;;;;4.68;1.20;;;;;;;;;;5058395;28;20037;-79
2022/04/26 08:33:09;;;;;;;6.30;1.35;;;;;;;;;;5056333;28;20045;-79
2022/04/26 08:35:55;;;;;;;1.42;1.20;;;;;;;;;;5054264;28;20045;-79
2022/04/26 08:38:41;;;;;;;2.85;1.23;;;;;;;;;;5053668;28;20045;-79
2022/04/26 08:41:27;;;;;;;2.20;1.42;;;;;;;;;;5051522;28;20044;-76
2022/04/26 08:44:13;;;;;;;2.70;1.30;;;;;;;;;;5050669;28;20057;-76
2022/04/26 08:53:09;;;;;;;4.80;1.30;;;;;;;;;;5050826;28;20044;-75
2022/04/26 08:55:56;;;;;;;3.65;1.30;;;;;;;;;;5049039;28;20345;-76
2022/04/26 08:58:42;;;;;;;3.58;1.38;;;;;;;;;;5050208;28;20041;-77
2022/04/26 09:01:27;;;;;;;1.98;1.30;;;;;;;;;;5057096;28;20502;-82
2022/04/26 09:04:15;;;;;;;3.83;1.38;;;;;;;;;;5050379;28;20053;-79
2022/04/26 09:07:01;;;;;;;2.38;1.20;;;;;;;;;;5050772;28;20053;-80
2022/04/26 09:09:46;;;;;;;3.85;1.40;;;;;;;;;;5050078;28;20041;-80
2022/04/26 09:12:32;;;;;;;2.17;1.20;;;;;;;;;;5050330;28;20041;-80
2022/04/26 09:15:18;;;;;;;3.35;1.13;;;;;;;;;;5050385;28;20037;-78
2022/04/26 09:18:30;;;;;;;9.30;1.42;;;;;;;;;;5049954;28;20045;-78
2022/04/26 09:21:16;;;;;;;2.70;1.45;;;;;;;;;;5050237;28;20053;-78
2022/04/26 09:24:04;;;;;;;1.83;1.30;;;;;;;;;;5050205;28;20044;-79
2022/04/26 09:26:49;;;;;;;3.72;1.20;;;;;;;;;;5050529;28;20041;-78
2022/04/26 09:29:46;;;;;;;6.50;1.25;;;;;;;;;;5050247;28;20037;-79
2022/04/26 09:36:24;;;;;;;3.92;1.10;;;;;;;;;;5052776;28;20033;-82
2022/04/26 09:39:09;;;;;;;2.65;1.10;;;;;;;;;;5053134;28;20049;-82
2022/04/26 09:41:55;;;;;;;4.07;1.10;;;;;;;;;;5053274;28;20036;-83
2022/04/26 09:44:41;;;;;;;3.00;1.20;;;;;;;;;;5051974;28;20398;-81
2022/04/26 09:47:56;;;;;;;2.10;1.33;;;;;;;;;;5052644;28;20033;-79
2022/04/26 09:50:41;;;;;;;;;;;;;;;;;;5053452;28;20037;-80
2022/04/26 09:53:29;;;;;;;6.03;1.23;;;;;;;;;;5052930;28;20349;-79
2022/04/26 09:56:19;;;;;;;3.25;1.20;;;;;;;;;;5053043;28;20493;-79
2022/04/26 09:59:04;;;;;;;2.67;1.15;;;;;;;;;;5053140;28;20041;-79
2022/04/26 10:01:53;;;;;;;4.22;1.13;;;;;;;;;;5052746;28;20049;-79
2022/04/26 10:04:46;;;;;;;3.53;1.30;;;;;;;;;;5051639;28;20053;-78
2022/04/26 10:07:39;;;;;;;1.90;1.20;;;;;;;;;;5059470;28;20049;-81
2022/04/26 10:10:27;;;;;;;4.15;1.10;;;;;;;;;;5059034;28;20473;-84
2022/04/26 10:16:23;;;;;;;4.10;0.93;;;;;;;;;;5053526;28;20041;-80
2022/04/26 10:19:12;;;;;;;3.22;1.10;;;;;;;;;;5045607;28;20041;-79
2022/04/26 10:21:58;;;;;;;4.20;1.10;;;;;;;;;;5059664;28;20048;-81
2022/04/26 10:25:16;;;;;;;3.30;1.20;;;;;;;;;;5055619;28;20052;-83
2022/04/26 10:28:26;;;;;;;9.38;1.25;;;;;;;;;;5075580;28;20045;-83
2022/04/26 10:31:15;;;;;;;1.48;1.10;;;;;;;;;;5053613;28;20049;-81
2022/04/26 10:34:00;;;;;;;2.72;1.15;;;;;;;;;;5044446;28;20074;-82
2022/04/26 10:36:47;;;;;;;2.28;1.30;;;;;;;;;;5059240;28;20045;-81
2022/04/26 10:39:41;;;;;;;1.85;1.20;;;;;;;;;;5052291;28;20037;-82
2022/04/26 10:42:29;;;;;;;2.08;1.00;;;;;;;;;;5052139;28;20036;-80
2022/04/26 10:45:15;;;;;;;2.20;1.30;;;;;;;;;;5052507;28;20049;-83
2022/04/26 10:48:26;;;;;;;3.30;1.30;;;;;;;;;;5058379;28;20045;-82
2022/04/26 10:51:36;;;;;;;2.85;1.00;;;;;;;;;;5051896;28;20044;-82
2022/04/26 10:54:47;;;;;;;6.85;1.30;;;;;;;;;;5052516;28;20061;-82
2022/04/26 10:57:41;;;;;;;7.63;1.10;;;;;;;;;;5051885;28;20036;-82
2022/04/26 11:00:33;;;;;;;2.88;1.17;;;;;;;;;;5058595;28;20044;-84
2022/04/26 11:03:19;;;;;;;1.58;1.15;;;;;;;;;;5052077;28;20049;-82
2022/04/26 11:06:05;;;;;;;5.03;1.10;;;;;;;;;;5052182;28;20040;-81
2022/04/26 11:09:13;;;;;;;2.53;1.10;;;;;;;;;;5052386;28;20041;-83
2022/04/26 11:11:58;;;;;;;3.90;1.20;;;;;;;;;;5051855;28;20044;-82
2022/04/26 11:14:45;;;;;;;1.67;1.00;;;;;;;;;;5052126;28;20497;-84
2022/04/26 11:17:30;;;;;;;1.35;1.25;;;;;;;;;;5051436;28;20045;-82
2022/04/26 11:20:17;;;;;;;6.78;1.33;;;;;;;;;;5051471;28;20077;-81
2022/04/26 11:29:24;;;;;;;3.90;1.63;;;;;;;;;;5051939;28;20048;-84
2022/04/26 11:32:27;;;;;;;5.87;1.37;;;;;;;;;;5051563;28;20044;-85
2022/04/26 11:35:19;;;;;;;4.18;1.08;;;;;;;;;;5052077;28;20281;-82
2022/04/26 11:38:07;;;;;;;5.60;1.40;;;;;;;;;;5051773;28;20033;-82
2022/04/26 11:41:00;;;;;;;2.70;1.20;;;;;;;;;;5051375;28;20049;-83
2022/04/26 11:43:45;;;;;;;4.63;1.50;;;;;;;;;;5051641;28;20478;-82
2022/04/26 11:46:31;;;;;;;6.78;1.60;;;;;;;;;;5051061;28;20482;-82
2022/04/26 11:49:16;;;;;;;3.60;1.70;;;;;;;;;;5051242;28;20041;-81
2022/04/26 11:52:02;;;;;;;4.35;1.58;;;;;;;;;;5051121;28;20045;-83
2022/04/26 11:54:48;;;;;;;7.07;1.75;;;;;;;;;;5051492;28;20041;-82
2022/04/26 11:57:34;;;;;;;2.88;1.33;;;;;;;;;;5051611;28;20405;-82
2022/04/26 12:00:21;;;;;;;3.50;1.20;;;;;;;;;;5050398;28;20033;-82
2022/04/26 12:03:09;;;;;;;4.97;1.48;;;;;;;;;;5051610;28;20053;-83
2022/04/26 12:05:59;;;;;;;1.50;1.17;;;;;;;;;;5051602;28;20502;-82
2022/04/26 12:08:54;;;;;;;3.10;1.35;;;;;;;;;;5051022;28;20045;-82
2022/04/26 12:11:40;;;;;;;4.15;1.20;;;;;;;;;;5057590;28;20037;-82
2022/04/26 12:14:26;;;;;;;5.25;1.40;;;;;;;;;;5050870;28;20040;-84
2022/04/26 12:17:18;;;;;;;5.97;1.55;;;;;;;;;;5051111;28;20037;-84
2022/04/26 12:20:10;;;;;;;5.65;1.95;;;;;;;;;;5051323;28;20037;-81
2022/04/26 12:22:57;;;;;;;3.70;1.40;;;;;;;;;;5050637;28;20045;-83
2022/04/26 12:25:55;;;;;;;2.30;1.10;;;;;;;;;;5051483;28;20481;-83
2022/04/26 12:28:51;;;;;;;4.90;1.08;;;;;;;;;;5051077;28;20398;-82
2022/04/26 12:31:44;;;;;;;1.40;0.98;;;;;;;;;;5051131;28;20483;-82
2022/04/26 12:34:29;;;;;;;3.03;1.27;;;;;;;;;;5057678;28;20493;-82
2022/04/26 12:37:23;;;;;;;5.65;1.40;;;;;;;;;;5057432;28;20041;-81
2022/04/26 12:40:11;;;;;;;4.43;1.30;;;;;;;;;;5079234;28;20037;-82
2022/04/26 12:42:57;;;;;;;4.03;1.30;;;;;;;;;;5051074;28;20049;-82
2022/04/26 12:45:56;;;;;;;5.25;1.40;;;;;;;;;;5050783;28;20049;-84
2022/04/26 12:52:10;;;;;;;1.73;1.27;;;;;;;;;;5036296;28;20049;-82
2022/04/26 12:54:56;;;;;;;1.42;1.10;;;;;;;;;;5050626;28;20449;-82
2022/04/26 12:58:07;;;;;;;7.03;1.20;;;;;;;;;;5050289;28;20505;-81
2022/04/26 13:00:53;;;;;;;2.85;1.27;;;;;;;;;;5050313;28;20481;-84
2022/04/26 13:03:39;;;;;;;4.40;1.30;;;;;;;;;;5057249;28;20045;-82
2022/04/26 13:06:25;;;;;;;3.22;1.17;;;;;;;;;;5049950;28;20045;-82
2022/04/26 13:09:10;;;;;;;1.13;1.02;;;;;;;;;;5050622;28;20398;-82
2022/04/26 13:11:56;;;;;;;2.20;1.10;;;;;;;;;;5053749;28;20033;-84
2022/04/26 13:14:42;;;;;;;8.43;1.60;;;;;;;;;;5053295;28;20041;-83
2022/04/26 13:17:27;;;;;;;6.35;1.50;;;;;;;;;;5053745;28;20045;-84
2022/04/26 13:20:13;;;;;;;3.75;1.17;;;;;;;;;;5058269;28;20041;-82
2022/04/26 13:22:59;;;;;;;2.15;1.15;;;;;;;;;;5054905;28;20049;-83
2022/04/26 13:25:44;;;;;;;1.75;1.10;;;;;;;;;;5053951;28;20049;-83
2022/04/26 13:28:30;;;;;;;3.22;1.20;;;;;;;;;;5060385;28;20049;-83
2022/04/26 13:31:16;;;;;;;5.05;1.30;;;;;;;;;;5053652;28;20033;-83
2022/04/26 13:34:02;;;;;;;3.65;1.23;;;;;;;;;;5053372;28;20049;-83
2022/04/26 13:36:47;;;;;;;6.82;1.50;;;;;;;;;;5053586;28;20041;-80
2022/04/26 13:39:32;;;;;;;6.03;1.40;;;;;;;;;;5053263;28;20041;-84
2022/04/26 13:42:19;;;;;;;5.20;1.50;;;;;;;;;;5053649;28;20386;-84
2022/04/26 13:45:06;;;;;;;4.80;1.20;;;;;;;;;;5052587;28;20049;-83
2022/04/26 13:47:52;;;;;;;2.65;1.30;;;;;;;;;;5053218;28;20045;-82
2022/04/26 13:50:39;;;;;;;4.47;1.70;;;;;;;;;;5053429;28;20045;-83
2022/04/26 13:53:24;;;;;;;4.63;1.40;;;;;;;;;;5060024;28;20049;-84
2022/04/26 13:56:10;;;;;;;3.70;1.27;;;;;;;;;;5053280;28;20049;-82
2022/04/26 13:58:55;;;;;;;3.55;1.30;;;;;;;;;;5053337;28;20425;-83
2022/04/26 14:01:41;;;;;;;4.82;3.13;;;;;;;;;;5054538;28;20033;-83
2022/04/26 14:04:26;;;;;;;3.72;1.70;;;;;;;;;;5057866;28;20068;-81
2022/04/26 14:07:12;;;;;;;3.05;1.63;;;;;;;;;;5059347;28;20049;-88
2022/04/26 14:09:58;;;;;;;13.30;7.45;;;;;;;;;;5060175;28;20381;-87
2022/04/26 14:12:43;;;;;;;3.92;1.80;;;;;;;;;;5060987;28;20052;-86
2022/04/26 14:21:48;;;;;;;5.15;1.40;;;;;;;;;;5039715;28;20394;-83
2022/04/26 14:24:35;;;;;;;7.43;5.13;;;;;;;;;;5054820;28;20057;-78
2022/04/26 14:27:21;;;;;;;38.15;19.00;;;;;;;;;;5052166;28;20045;-76
2022/04/26 14:30:09;;;;;;;10.45;5.88;;;;;;;;;;5052698;28;20037;-81
2022/04/26 14:32:55;;;;;;;4.22;2.25;;;;;;;;;;5052814;28;20045;-81
2022/04/26 14:35:41;;;;;;;2.20;1.30;;;;;;;;;;5059783;28;20389;-81
2022/04/26 14:38:27;;;;;;;9.32;3.67;;;;;;;;;;5052407;28;20053;-81
2022/04/26 14:41:13;;;;;;;16.85;9.30;;;;;;;;;;5052443;28;20458;-81
2022/04/26 14:43:58;;;;;;;5.47;1.52;;;;;;;;;;5052679;28;20049;-82
2022/04/26 14:46:44;;;;;;;2.58;1.17;;;;;;;;;;5058271;28;20041;-82
2022/04/26 14:49:34;;;;;;;3.22;1.40;;;;;;;;;;5053009;28;20033;-81
2022/04/26 14:52:21;;;;;;;4.70;1.70;;;;;;;;;;5059410;28;20049;-81
2022/04/26 14:55:08;;;;;;;2.60;1.70;;;;;;;;;;5062374;28;20041;-82
2022/04/26 14:57:53;;;;;;;2.47;1.60;;;;;;;;;;5052227;28;20048;-81
2022/04/26 15:00:39;;;;;;;1.60;1.10;;;;;;;;;;5057948;28;20092;-82
2022/04/26 15:03:25;;;;;;;1.65;1.20;;;;;;;;;;5057102;28;20052;-81
2022/04/26 15:06:11;;;;;;;22.80;5.15;;;;;;;;;;5052157;28;20037;-82
2022/04/26 15:18:11;;;;;;;11.45;5.68;;;;;;;;;;5051635;28;20041;-80
2022/04/26 15:20:57;;;;;;;22.15;13.55;;;;;;;;;;5057981;28;20481;-82
2022/04/26 15:23:42;;;;;;;17.42;9.38;;;;;;;;;;5051554;28;20041;-82
2022/04/26 15:26:29;;;;;;;12.05;5.20;;;;;;;;;;5051677;28;20049;-83
2022/04/26 15:29:15;;;;;;;3.95;1.55;;;;;;;;;;5057563;28;20486;-82
2022/04/26 15:32:00;;;;;;;2.35;1.20;;;;;;;;;;5052118;28;20402;-80
2022/04/26 15:34:46;;;;;;;1.73;1.05;;;;;;;;;;5051242;28;20037;-79
2022/04/26 15:37:31;;;;;;;35.97;17.23;;;;;;;;;;5051648;28;20398;-79
2022/04/26 15:40:16;;;;;;;39.55;18.13;;;;;;;;;;5057036;28;20390;-77
2022/04/26 15:43:04;;;;;;;19.15;8.82;;;;;;;;;;5050668;28;20053;-79
2022/04/26 15:45:49;;;;;;;2.53;1.20;;;;;;;;;;5051990;28;20036;-78
2022/04/26 15:48:39;;;;;;;4.43;1.17;;;;;;;;;;5051294;28;20049;-79
2022/04/26 15:51:25;;;;;;;1.55;1.10;;;;;;;;;;5051085;28;20064;-78
2022/04/26 15:54:10;;;;;;;1.20;1.05;;;;;;;;;;5051694;28;20044;-79
2022/04/26 15:56:55;;;;;;;1.65;1.20;;;;;;;;;;5051111;28;20037;-79
2022/04/26 15:59:41;;;;;;;2.00;1.10;;;;;;;;;;5051581;28;20045;-79
2022/04/26 16:02:27;;;;;;;2.58;1.38;;;;;;;;;;5051024;28;20045;-79
2022/04/26 16:05:12;;;;;;;2.90;1.20;;;;;;;;;;5057831;28;20045;-79
2022/04/26 16:07:58;;;;;;;3.03;1.65;;;;;;;;;;5051384;28;20041;-79
2022/04/26 16:23:08;;;;;;;4.60;2.50;;;;;;;;;;5051159;28;20052;-80
2022/04/26 16:25:54;;;;;;;2.53;1.27;;;;;;;;;;5057517;28;20221;-78
2022/04/26 16:28:39;;;;;;;5.97;1.58;;;;;;;;;;5051147;28;20048;-78
2022/04/26 16:31:28;;;;;;;2.03;1.20;;;;;;;;;;5050562;28;20037;-78
2022/04/26 16:34:12;;;;;;;7.63;2.40;;;;;;;;;;5050818;28;20044;-77
2022/04/26 16:36:57;;;;;;;3.05;1.75;;;;;;;;;;5051151;28;20037;-78
2022/04/26 16:39:43;;;;;;;2.88;1.50;;;;;;;;;;5050523;28;20048;-78
2022/04/26 16:42:30;;;;;;;3.83;2.22;;;;;;;;;;5050995;28;20041;-77
2022/04/26 16:45:16;;;;;;;3.92;2.55;;;;;;;;;;5049647;28;20037;-77
2022/04/26 16:48:01;;;;;;;4.82;1.90;;;;;;;;;;5050735;28;20041;-77
2022/04/26 16:50:46;;;;;;;20.90;8.88;;;;;;;;;;5050468;28;20045;-79
2022/04/26 16:53:32;;;;;;;7.47;2.92;;;;;;;;;;5056979;28;20493;-80
2022/04/26 16:56:17;;;;;;;2.33;1.48;;;;;;;;;;5050533;28;20049;-79
2022/04/26 16:59:03;;;;;;;6.03;1.90;;;;;;;;;;5050256;28;20049;-79
2022/04/26 17:01:50;;;;;;;7.18;1.90;;;;;;;;;;5050428;28;20049;-79
2022/04/26 17:04:35;;;;;;;7.93;3.00;;;;;;;;;;5057337;28;20045;-79
2022/04/26 17:07:21;;;;;;;10.32;5.07;;;;;;;;;;5059624;28;20029;-78
2022/04/26 17:10:07;;;;;;;8.70;3.88;;;;;;;;;;5051954;28;20041;-79
2022/04/26 17:12:52;;;;;;;8.57;4.20;;;;;;;;;;5055762;28;20037;-79
2022/04/26 17:15:38;;;;;;;3.05;1.70;;;;;;;;;;5050305;28;20045;-78
2022/04/26 17:18:23;;;;;;;3.55;2.72;;;;;;;;;;5050533;28;20378;-78
2022/04/26 17:21:10;;;;;;;3.72;1.80;;;;;;;;;;5049944;28;20045;-78
2022/04/26 17:23:56;;;;;;;7.53;2.78;;;;;;;;;;5050398;28;20156;-77
2022/04/26 17:26:42;;;;;;;10.43;2.30;;;;;;;;;;5050439;28;20137;-77
2022/04/26 17:29:28;;;;;;;6.70;2.63;;;;;;;;;;5052697;28;20393;-77
2022/04/26 17:32:14;;;;;;;6.38;3.30;;;;;;;;;;5050120;28;20041;-84
2022/04/26 17:34:59;;;;;;;3.40;2.33;;;;;;;;;;5048935;28;20049;-84
2022/04/26 17:37:44;;;;;;;9.30;5.18;;;;;;;;;;5050327;28;20049;-87
2022/04/26 17:40:30;;;;;;;6.45;3.10;;;;;;;;;;5050022;28;20045;-82
2022/04/26 17:43:15;;;;;;;30.52;14.70;;;;;;;;;;5056139;28;20053;-84
2022/04/26 17:46:01;;;;;;;11.65;6.05;;;;;;;;;;5050294;28;20469;-79
2022/04/26 17:48:49;;;;;;;13.13;7.90;;;;;;;;;;5056353;28;20049;-81
2022/04/26 17:51:34;;;;;;;7.10;3.75;;;;;;;;;;5049594;28;20049;-83
2022/04/26 17:57:23;;;;;;;3.67;2.90;;;;;;;;;;5051406;28;20479;-82
2022/04/26 18:00:11;;;;;;;6.07;2.97;;;;;;;;;;5053464;28;20057;-81
2022/04/26 18:03:00;;;;;;;6.05;3.40;;;;;;;;;;5053299;28;20045;-81
2022/04/26 18:05:45;;;;;;;61.58;35.15;;;;;;;;;;5059834;28;20044;-81
2022/04/26 18:08:30;;;;;;;16.77;8.80;;;;;;;;;;5052091;28;20049;-81
2022/04/26 18:11:15;;;;;;;18.60;10.48;;;;;;;;;;5052752;28;20053;-81
2022/04/26 18:14:01;;;;;;;8.90;5.53;;;;;;;;;;5052896;28;20049;-81
2022/04/26 18:16:47;;;;;;;8.73;5.40;;;;;;;;;;5053022;28;20053;-83
2022/04/26 18:19:33;;;;;;;30.63;13.18;;;;;;;;;;5052793;28;20045;-81
2022/04/26 18:22:18;;;;;;;261.25;102.05;;;;;;;;;;5052422;28;20045;-81
2022/04/26 18:25:05;;;;;;;173.65;62.45;;;;;;;;;;5059457;28;20040;-81
2022/04/26 18:27:51;;;;;;;43.00;19.00;;;;;;;;;;5058479;28;20045;-81
2022/04/26 18:30:36;;;;;;;33.45;15.43;;;;;;;;;;5052909;28;20489;-80
2022/04/26 18:33:22;;;;;;;82.78;29.08;;;;;;;;;;5052381;28;20045;-80
2022/04/26 18:36:09;;;;;;;16.92;7.70;;;;;;;;;;5053052;28;20381;-80
2022/04/26 18:38:57;;;;;;;19.85;9.18;;;;;;;;;;5052310;28;20052;-80
2022/04/26 18:41:43;;;;;;;33.33;15.10;;;;;;;;;;5051917;28;20402;-80
2022/04/26 18:44:28;;;;;;;9.90;6.72;;;;;;;;;;5052588;28;20037;-82
2022/04/26 18:47:14;;;;;;;14.95;6.85;;;;;;;;;;5059176;28;20494;-79
2022/04/26 18:49:59;;;;;;;10.95;6.22;;;;;;;;;;5052831;28;20382;-81
2022/04/26 18:52:45;;;;;;;16.02;8.38;;;;;;;;;;5051529;28;20049;-81
2022/04/26 18:55:31;;;;;;;14.50;7.90;;;;;;;;;;5052463;28;20044;-82
2022/04/26 18:58:18;;;;;;;13.10;8.10;;;;;;;;;;5052270;28;20041;-79
2022/04/26 19:01:03;;;;;;;10.68;7.25;;;;;;;;;;5050067;28;20045;-79
2022/04/26 19:03:48;;;;;;;20.73;7.68;;;;;;;;;;5052296;28;20045;-81
2022/04/26 19:06:34;;;;;;;10.32;7.07;;;;;;;;;;5052301;28;20044;-81
2022/04/26 19:09:19;;;;;;;11.25;7.25;;;;;;;;;;5051634;28;20474;-81
2022/04/26 19:12:18;;;;;;;11.20;6.45;;;;;;;;;;5058030;28;20509;-79
2022/04/26 19:15:05;;;;;;;16.05;7.93;;;;;;;;;;5051773;28;20037;-81
2022/04/26 19:17:50;;;;;;;21.55;7.85;;;;;;;;;;5052850;28;20049;-81
2022/04/26 19:20:36;;;;;;;11.93;7.00;;;;;;;;;;5067236;28;20045;-80
2022/04/26 19:23:21;;;;;;;10.25;6.13;;;;;;;;;;5058440;28;20049;-80
2022/04/26 19:26:07;;;;;;;12.20;8.13;;;;;;;;;;5051610;28;20041;-81
2022/04/26 19:28:52;;;;;;;14.40;8.95;;;;;;;;;;5051726;28;20405;-81
2022/04/26 19:31:37;;;;;;;12.75;7.28;;;;;;;;;;5052010;28;20033;-79
2022/04/26 19:34:23;;;;;;;24.58;12.93;;;;;;;;;;5057456;28;20037;-80
2022/04/26 19:37:08;;;;;;;6.07;3.65;;;;;;;;;;5050526;28;20041;-80
2022/04/26 19:39:54;;;;;;;4.85;3.00;;;;;;;;;;5051999;28;20049;-82
2022/04/26 19:42:44;;;;;;;14.75;5.78;;;;;;;;;;5050770;28;20041;-80
2022/04/26 19:45:30;;;;;;;11.15;6.30;;;;;;;;;;5042350;28;20155;-80
2022/04/26 19:48:22;;;;;;;8.27;5.82;;;;;;;;;;5051588;28;20040;-80
2022/04/26 19:51:26;;;;;;;13.48;5.53;;;;;;;;;;5050133;28;20057;-81
2022/04/26 19:54:11;;;;;;;12.80;6.22;;;;;;;;;;5048197;28;20040;-80
2022/04/26 19:56:56;;;;;;;9.63;6.70;;;;;;;;;;5050662;28;20057;-80
2022/04/26 19:59:42;;;;;;;10.38;6.40;;;;;;;;;;5057097;28;20405;-80
2022/04/26 20:02:27;;;;;;;11.75;5.88;;;;;;;;;;5050042;28;20045;-80
2022/04/26 20:05:14;;;;;;;23.45;8.50;;;;;;;;;;5049874;28;20037;-80
2022/04/26 20:07:58;;;;;;;17.77;9.13;;;;;;;;;;5051396;28;20056;-81
2022/04/26 20:10:44;;;;;;;15.82;7.68;;;;;;;;;;5057746;28;20041;-81
2022/04/26 20:13:31;;;;;;;11.50;5.22;;;;;;;;;;5050238;28;20041;-81
2022/04/26 20:16:16;;;;;;;19.88;5.57;;;;;;;;;;5051025;28;20394;-81
2022/04/26 20:19:02;;;;;;;21.65;7.28;;;;;;;;;;5048713;28;20049;-81
2022/04/26 20:21:47;;;;;;;26.95;8.93;;;;;;;;;;5050705;28;20493;-81
2022/04/26 20:24:35;;;;;;;30.23;9.02;;;;;;;;;;5051054;28;20053;-79
2022/04/26 20:30:23;;;;;;;26.70;7.35;;;;;;;;;;5050865;28;20413;-81
2022/04/26 20:33:09;;;;;;;17.08;6.53;;;;;;;;;;5050914;28;20401;-80
2022/04/26 20:35:55;;;;;;;11.23;4.72;;;;;;;;;;5050803;28;20049;-80
2022/04/26 20:38:40;;;;;;;12.80;5.20;;;;;;;;;;5051243;28;20037;-80
2022/04/26 20:41:26;;;;;;;14.75;6.10;;;;;;;;;;5050569;28;20048;-79
2022/04/26 20:44:12;;;;;;;15.02;5.88;;;;;;;;;;5050850;28;20478;-80
2022/04/26 20:46:58;;;;;;;16.77;5.85;;;;;;;;;;5050620;28;20045;-80
2022/04/26 20:49:47;;;;;;;11.82;5.55;;;;;;;;;;5050033;28;20036;-80
2022/04/26 20:52:33;;;;;;;11.00;6.80;;;;;;;;;;5051770;28;20049;-81
2022/04/26 20:55:19;;;;;;;10.85;5.85;;;;;;;;;;5050120;28;20041;-81
2022/04/26 20:58:05;;;;;;;11.30;6.05;;;;;;;;;;5050485;28;20041;-81
2022/04/26 21:00:50;;;;;;;12.10;5.97;;;;;;;;;;5050554;28;20049;-81
2022/04/26 21:03:35;;;;;;;10.32;5.40;;;;;;;;;;5049871;28;20049;-80
2022/04/26 21:06:21;;;;;;;4.90;2.95;;;;;;;;;;5049018;28;20482;-82
2022/04/26 21:09:06;;;;;;;4.50;3.10;;;;;;;;;;5050043;28;20393;-82
2022/04/26 21:11:52;;;;;;;7.57;3.00;;;;;;;;;;5050521;28;20045;-81
2022/04/26 21:14:38;;;;;;;2.97;2.33;;;;;;;;;;5051172;28;20045;-80